createdAt,value
2023-05-10T00:00:52.002Z,5.43
2023-05-10T00:01:54.447Z,6.35
2023-05-10T00:02:56.792Z,5.45
2023-05-10T00:03:59.360Z,5.97
2023-05-10T00:05:02.669Z,6.93
2023-05-10T00:06:05.069Z,6.32
2023-05-10T00:07:07.898Z,5.55
2023-05-10T00:08:10.294Z,5.57
2023-05-10T00:09:12.722Z,7.35
2023-05-10T00:10:15.478Z,5.78
2023-05-10T00:11:18.031Z,5.50
2023-05-10T00:12:20.321Z,9.07
2023-05-10T00:13:23.404Z,5.10
2023-05-10T00:14:25.721Z,7.90
2023-05-10T00:15:28.100Z,7.07
2023-05-10T00:16:30.461Z,8.23
2023-05-10T00:17:32.732Z,7.53
2023-05-10T00:18:35.208Z,5.07
2023-05-10T00:19:37.657Z,5.38
2023-05-10T00:20:39.916Z,7.32
2023-05-10T00:21:42.466Z,7.05
2023-05-10T00:22:45.062Z,5.40
2023-05-10T00:23:47.344Z,7.03
2023-05-10T00:24:49.573Z,6.43
2023-05-10T00:25:52.005Z,6.38
2023-05-10T00:26:54.285Z,5.95
2023-05-10T00:27:58.331Z,6.30
2023-05-10T00:30:03.454Z,8.02
2023-05-10T00:31:06.261Z,10.13
2023-05-10T00:32:09.014Z,6.25
2023-05-10T00:33:12.674Z,5.65
2023-05-10T00:34:14.942Z,6.80
2023-05-10T00:35:17.592Z,7.55
2023-05-10T00:36:19.866Z,5.47
2023-05-10T00:37:22.150Z,5.85
2023-05-10T00:38:25.182Z,6.93
2023-05-10T00:39:29.667Z,5.20
2023-05-10T00:40:32.006Z,5.10
2023-05-10T00:41:39.072Z,6.60
2023-05-10T00:43:45.452Z,8.80
2023-05-10T00:44:47.899Z,5.47
2023-05-10T00:45:51.020Z,6.95
2023-05-10T00:46:53.850Z,8.10
2023-05-10T00:47:57.170Z,6.28
2023-05-10T00:48:59.584Z,5.85
2023-05-10T00:50:01.902Z,6.88
2023-05-10T00:51:04.566Z,7.03
2023-05-10T00:52:07.189Z,5.05
2023-05-10T00:53:10.054Z,6.10
2023-05-10T00:54:13.099Z,6.50
2023-05-10T00:55:15.449Z,6.25
2023-05-10T00:56:17.959Z,6.72
2023-05-10T00:57:20.679Z,5.50
2023-05-10T00:58:25.010Z,5.88
2023-05-10T00:59:27.428Z,6.03
2023-05-10T01:00:30.742Z,5.82
2023-05-10T01:01:33.424Z,5.53
2023-05-10T01:02:36.447Z,7.93
2023-05-10T01:03:40.377Z,5.60
2023-05-10T01:04:42.968Z,5.60
2023-05-10T01:05:45.296Z,6.53
2023-05-10T01:06:47.582Z,9.63
2023-05-10T01:07:50.119Z,6.07
2023-05-10T01:08:52.553Z,6.15
2023-05-10T01:09:54.941Z,6.45
2023-05-10T01:10:57.589Z,10.45
2023-05-10T01:12:00.548Z,5.78
2023-05-10T01:13:04.285Z,6.82
2023-05-10T01:14:07.579Z,6.22
2023-05-10T01:15:10.823Z,5.10
2023-05-10T01:16:13.855Z,5.55
2023-05-10T01:17:17.536Z,6.53
2023-05-10T01:18:21.342Z,5.00
2023-05-10T01:19:25.552Z,8.32
2023-05-10T01:20:33.766Z,6.60
2023-05-10T01:21:45.409Z,6.03
2023-05-10T01:23:06.057Z,5.75
2023-05-10T01:24:17.425Z,5.20
2023-05-10T01:25:25.683Z,4.70
2023-05-10T01:26:54.919Z,6.93
2023-05-10T01:28:13.325Z,8.07
2023-05-10T01:30:14.111Z,6.90
2023-05-10T01:31:54.911Z,6.43
2023-05-10T01:33:17.630Z,5.00
2023-05-10T01:34:26.919Z,5.07
2023-05-10T01:35:44.743Z,5.50
2023-05-10T01:36:50.779Z,6.68
2023-05-10T01:38:07.253Z,5.30
2023-05-10T01:39:36.496Z,8.50
2023-05-10T01:41:08.051Z,6.75
2023-05-10T01:42:19.193Z,6.90
2023-05-10T01:43:24.482Z,6.25
2023-05-10T01:44:44.503Z,6.82
2023-05-10T01:46:02.498Z,5.97
2023-05-10T01:47:16.895Z,7.28
2023-05-10T01:48:20.563Z,5.18
2023-05-10T01:49:27.945Z,6.32
2023-05-10T01:50:31.562Z,8.25
2023-05-10T01:51:43.728Z,6.50
2023-05-10T01:52:56.958Z,6.65
2023-05-10T01:54:03.099Z,6.18
2023-05-10T01:55:13.557Z,6.43
2023-05-10T01:57:18.857Z,7.53
2023-05-10T01:58:30.836Z,7.95
2023-05-10T01:59:41.965Z,5.75
2023-05-10T02:00:46.066Z,6.10
2023-05-10T02:01:48.961Z,7.07
2023-05-10T02:02:54.070Z,5.15
2023-05-10T02:03:56.889Z,7.05
2023-05-10T02:05:00.365Z,7.80
2023-05-10T02:06:03.500Z,9.57
2023-05-10T02:07:07.317Z,7.78
2023-05-10T02:08:10.550Z,8.07
2023-05-10T02:09:13.375Z,6.32
2023-05-10T02:10:16.516Z,11.02
2023-05-10T02:11:19.467Z,5.68
2023-05-10T02:12:22.307Z,7.05
2023-05-10T02:13:27.299Z,7.45
2023-05-10T02:14:31.320Z,5.75
2023-05-10T02:15:34.172Z,6.93
2023-05-10T02:16:37.063Z,6.15
2023-05-10T02:17:40.567Z,6.43
2023-05-10T02:18:43.263Z,6.55
2023-05-10T02:19:46.508Z,8.77
2023-05-10T02:20:49.031Z,6.18
2023-05-10T02:21:52.436Z,8.80
2023-05-10T02:22:56.264Z,7.22
2023-05-10T02:23:59.434Z,10.40
2023-05-10T02:25:02.346Z,8.18
2023-05-10T02:26:06.926Z,7.13
2023-05-10T02:27:10.152Z,8.40
2023-05-10T02:28:13.223Z,5.40
2023-05-10T02:29:16.197Z,9.40
2023-05-10T02:30:19.351Z,6.40
2023-05-10T02:31:22.074Z,7.00
2023-05-10T02:32:26.235Z,11.00
2023-05-10T02:33:29.439Z,8.60
2023-05-10T02:34:32.525Z,7.97
2023-05-10T02:35:36.311Z,10.45
2023-05-10T02:36:39.807Z,8.52
2023-05-10T02:37:42.589Z,7.78
2023-05-10T02:38:46.117Z,8.00
2023-05-10T02:39:49.802Z,10.95
2023-05-10T02:40:52.463Z,7.53
2023-05-10T02:41:55.002Z,8.30
2023-05-10T02:42:58.270Z,7.38
2023-05-10T02:44:01.672Z,7.28
2023-05-10T02:45:09.254Z,9.60
2023-05-10T02:46:11.713Z,8.68
2023-05-10T02:47:13.989Z,6.13
2023-05-10T02:48:17.279Z,9.75
2023-05-10T02:49:20.088Z,7.28
2023-05-10T02:50:23.891Z,7.68
2023-05-10T02:51:29.934Z,7.13
2023-05-10T02:52:40.486Z,6.40
2023-05-10T02:53:45.570Z,10.38
2023-05-10T02:54:51.504Z,8.43
2023-05-10T02:55:57.862Z,7.35
2023-05-10T02:57:02.509Z,7.60
2023-05-10T02:58:06.084Z,8.82
2023-05-10T02:59:08.384Z,9.40
2023-05-10T03:00:11.124Z,7.43
2023-05-10T03:01:13.541Z,8.00
2023-05-10T03:02:15.895Z,8.40
2023-05-10T03:03:18.188Z,8.52
2023-05-10T03:04:20.830Z,8.35
2023-05-10T03:05:23.177Z,6.30
2023-05-10T03:06:25.946Z,6.57
2023-05-10T03:07:28.338Z,7.20
2023-05-10T03:08:30.977Z,8.25
2023-05-10T03:09:33.876Z,8.88
2023-05-10T03:10:42.226Z,8.63
2023-05-10T03:12:14.152Z,8.18
2023-05-10T03:13:44.213Z,7.88
2023-05-10T03:14:51.952Z,9.40
2023-05-10T03:16:03.725Z,9.05
2023-05-10T03:17:18.768Z,9.38
2023-05-10T03:18:29.249Z,6.97
2023-05-10T03:20:01.311Z,8.23
2023-05-10T03:21:10.118Z,8.23
2023-05-10T03:22:14.429Z,6.78
2023-05-10T03:23:19.657Z,8.70
2023-05-10T03:24:24.258Z,7.80
2023-05-10T03:25:26.902Z,7.05
2023-05-10T03:26:30.165Z,8.10
2023-05-10T03:27:44.665Z,9.25
2023-05-10T03:28:49.516Z,8.82
2023-05-10T03:29:52.458Z,8.65
2023-05-10T03:30:58.072Z,16.10
2023-05-10T03:32:01.440Z,13.57
2023-05-10T03:33:07.545Z,7.82
2023-05-10T03:34:14.665Z,9.43
2023-05-10T03:35:17.503Z,6.13
2023-05-10T03:36:20.912Z,8.18
2023-05-10T03:37:23.193Z,9.30
2023-05-10T03:38:26.197Z,7.43
2023-05-10T03:40:34.600Z,9.20
2023-05-10T03:41:36.824Z,7.60
2023-05-10T03:42:39.196Z,8.25
2023-05-10T03:43:42.340Z,8.20
2023-05-10T03:44:44.790Z,7.68
2023-05-10T03:45:48.020Z,8.68
2023-05-10T03:46:50.451Z,7.80
2023-05-10T03:47:53.383Z,6.72
2023-05-10T03:48:55.780Z,6.45
2023-05-10T03:49:58.194Z,6.93
2023-05-10T03:51:00.546Z,9.23
2023-05-10T03:52:02.854Z,6.43
2023-05-10T03:53:05.147Z,7.75
2023-05-10T03:54:08.233Z,11.23
2023-05-10T03:55:10.705Z,7.85
2023-05-10T03:56:13.877Z,9.15
2023-05-10T03:57:16.147Z,6.10
2023-05-10T03:58:19.570Z,6.57
2023-05-10T03:59:21.992Z,6.38
2023-05-10T04:00:24.469Z,6.45
2023-05-10T04:01:29.909Z,7.22
2023-05-10T04:02:32.295Z,8.02
2023-05-10T04:03:37.869Z,9.20
2023-05-10T04:04:41.934Z,7.10
2023-05-10T04:05:44.226Z,8.63
2023-05-10T04:06:46.472Z,10.10
2023-05-10T04:07:50.429Z,9.25
2023-05-10T04:08:52.877Z,7.78
2023-05-10T04:09:55.188Z,10.45
2023-05-10T04:11:09.367Z,7.13
2023-05-10T04:12:11.903Z,7.18
2023-05-10T04:13:14.110Z,7.22
2023-05-10T04:14:16.693Z,7.43
2023-05-10T04:15:19.130Z,9.55
2023-05-10T04:16:21.474Z,8.25
2023-05-10T04:17:23.863Z,7.50
2023-05-10T04:18:26.732Z,7.38
2023-05-10T04:19:32.531Z,6.82
2023-05-10T04:20:35.210Z,6.57
2023-05-10T04:21:37.710Z,7.45
2023-05-10T04:22:40.008Z,7.50
2023-05-10T04:23:42.442Z,7.28
2023-05-10T04:24:44.935Z,5.65
2023-05-10T04:25:47.711Z,8.07
2023-05-10T04:26:50.283Z,7.75
2023-05-10T04:27:53.423Z,7.40
2023-05-10T04:28:55.828Z,8.50
2023-05-10T04:29:58.639Z,7.60
2023-05-10T04:31:05.210Z,7.85
2023-05-10T04:32:07.544Z,9.05
2023-05-10T04:33:09.709Z,7.00
2023-05-10T04:34:12.002Z,8.82
2023-05-10T04:35:16.070Z,6.03
2023-05-10T04:36:18.395Z,7.82
2023-05-10T04:37:22.479Z,7.90
2023-05-10T04:38:24.832Z,7.65
2023-05-10T04:39:27.224Z,8.60
2023-05-10T04:40:29.606Z,7.25
2023-05-10T04:41:32.133Z,10.95
2023-05-10T04:42:34.369Z,7.30
2023-05-10T04:43:37.516Z,11.70
2023-05-10T04:44:39.902Z,8.32
2023-05-10T04:45:42.545Z,8.25
2023-05-10T04:46:44.930Z,11.50
2023-05-10T04:47:47.628Z,9.90
2023-05-10T04:48:49.906Z,7.85
2023-05-10T04:49:52.347Z,6.40
2023-05-10T04:50:54.768Z,5.60
2023-05-10T04:51:57.279Z,6.55
2023-05-10T04:52:59.690Z,8.70
2023-05-10T04:54:06.423Z,7.80
2023-05-10T04:55:10.746Z,9.30
2023-05-10T04:56:13.073Z,10.45
2023-05-10T04:57:15.610Z,9.27
2023-05-10T04:58:17.978Z,6.70
2023-05-10T04:59:20.315Z,8.98
2023-05-10T05:00:22.929Z,8.25
2023-05-10T05:01:25.293Z,7.60
2023-05-10T05:02:27.964Z,6.63
2023-05-10T05:03:30.523Z,6.97
2023-05-10T05:04:32.969Z,8.55
2023-05-10T05:05:36.242Z,7.97
2023-05-10T05:06:38.752Z,12.93
2023-05-10T05:07:41.360Z,6.90
2023-05-10T05:08:43.916Z,6.50
2023-05-10T05:09:46.224Z,7.15
2023-05-10T05:10:51.333Z,9.57
2023-05-10T05:11:53.803Z,9.07
2023-05-10T05:12:56.174Z,7.55
2023-05-10T05:14:00.384Z,6.25
2023-05-10T05:15:03.539Z,8.70
2023-05-10T05:16:06.767Z,8.13
2023-05-10T05:17:09.354Z,8.00
2023-05-10T05:18:11.819Z,6.85
2023-05-10T05:19:14.109Z,10.02
2023-05-10T05:20:16.910Z,8.13
2023-05-10T05:21:20.176Z,12.20
2023-05-10T05:22:28.982Z,7.88
2023-05-10T05:23:31.303Z,7.78
2023-05-10T05:24:37.817Z,8.40
2023-05-10T05:25:40.066Z,8.48
2023-05-10T05:26:42.673Z,5.75
2023-05-10T05:27:44.979Z,6.78
2023-05-10T05:28:49.239Z,7.55
2023-05-10T05:29:52.384Z,6.85
2023-05-10T05:30:54.662Z,7.90
2023-05-10T05:31:56.958Z,6.82
2023-05-10T05:32:59.435Z,7.53
2023-05-10T05:34:01.945Z,12.48
2023-05-10T05:35:04.575Z,6.32
2023-05-10T05:36:07.239Z,8.65
2023-05-10T05:37:15.619Z,6.38
2023-05-10T05:38:18.691Z,6.05
2023-05-10T05:39:21.020Z,7.32
2023-05-10T05:40:23.270Z,9.45
2023-05-10T05:41:25.790Z,5.80
2023-05-10T05:42:29.093Z,9.45
2023-05-10T05:43:31.551Z,5.72
2023-05-10T05:44:33.954Z,6.65
2023-05-10T05:45:36.409Z,8.70
2023-05-10T05:46:39.199Z,5.70
2023-05-10T05:47:42.067Z,9.25
2023-05-10T05:48:44.552Z,6.95
2023-05-10T05:49:47.025Z,7.57
2023-05-10T05:50:49.401Z,7.00
2023-05-10T05:51:51.757Z,7.18
2023-05-10T05:52:54.243Z,6.78
2023-05-10T05:53:56.699Z,5.47
2023-05-10T05:54:58.951Z,7.97
2023-05-10T05:56:01.283Z,8.93
2023-05-10T05:57:03.902Z,7.57
2023-05-10T05:58:06.336Z,10.57
2023-05-10T05:59:09.072Z,8.25
2023-05-10T06:00:11.890Z,6.20
2023-05-10T06:01:17.836Z,6.40
2023-05-10T06:02:21.337Z,8.95
2023-05-10T06:03:23.922Z,7.18
2023-05-10T06:04:26.711Z,6.95
2023-05-10T06:05:29.144Z,7.93
2023-05-10T06:06:31.613Z,6.90
2023-05-10T06:07:33.917Z,7.90
2023-05-10T06:08:36.604Z,7.63
2023-05-10T06:09:38.932Z,8.68
2023-05-10T06:10:41.207Z,7.25
2023-05-10T06:11:43.579Z,6.03
2023-05-10T06:12:46.304Z,5.70
2023-05-10T06:13:48.984Z,10.82
2023-05-10T06:14:51.209Z,9.98
2023-05-10T06:15:53.481Z,6.05
2023-05-10T06:16:56.032Z,10.15
2023-05-10T06:18:24.414Z,8.27
2023-05-10T06:19:27.594Z,10.27
2023-05-10T06:20:33.113Z,8.38
2023-05-10T06:21:35.989Z,6.63
2023-05-10T06:22:38.233Z,6.85
2023-05-10T06:23:40.500Z,6.63
2023-05-10T06:24:42.837Z,6.47
2023-05-10T06:25:45.521Z,6.45
2023-05-10T06:26:47.925Z,6.97
2023-05-10T06:27:53.773Z,7.35
2023-05-10T06:28:56.428Z,5.88
2023-05-10T06:30:11.890Z,5.30
2023-05-10T06:31:15.549Z,5.38
2023-05-10T06:32:18.250Z,8.85
2023-05-10T06:33:20.589Z,8.32
2023-05-10T06:34:22.982Z,5.35
2023-05-10T06:35:25.448Z,5.40
2023-05-10T06:36:28.378Z,8.27
2023-05-10T06:37:30.764Z,4.70
2023-05-10T06:38:33.401Z,5.68
2023-05-10T06:39:35.849Z,5.80
2023-05-10T06:40:38.942Z,5.10
2023-05-10T06:41:41.669Z,5.57
2023-05-10T06:42:46.016Z,8.25
2023-05-10T06:43:48.465Z,6.18
2023-05-10T06:44:50.772Z,6.25
2023-05-10T06:45:53.285Z,8.40
2023-05-10T06:46:56.904Z,6.47
2023-05-10T06:47:59.315Z,7.95
2023-05-10T06:49:02.035Z,6.28
2023-05-10T06:50:04.435Z,6.13
2023-05-10T06:51:06.820Z,7.90
2023-05-10T06:52:29.688Z,6.75
2023-05-10T06:54:56.912Z,9.07
2023-05-10T06:56:01.740Z,10.15
2023-05-10T06:57:08.789Z,12.20
2023-05-10T06:58:17.096Z,13.88
2023-05-10T07:00:23.132Z,6.78
2023-05-10T07:01:26.607Z,6.15
2023-05-10T07:02:29.846Z,6.22
2023-05-10T07:03:33.216Z,6.70
2023-05-10T07:04:37.944Z,12.40
2023-05-10T07:05:40.431Z,11.02
2023-05-10T07:06:42.767Z,15.82
2023-05-10T07:07:45.103Z,20.70
2023-05-10T07:08:47.346Z,17.02
2023-05-10T07:09:51.020Z,6.90
2023-05-10T07:10:53.320Z,11.85
2023-05-10T07:11:56.022Z,8.95
2023-05-10T07:12:58.303Z,10.70
2023-05-10T07:14:01.049Z,6.03
2023-05-10T07:15:04.217Z,7.28
2023-05-10T07:16:07.601Z,5.55
2023-05-10T07:17:10.426Z,5.28
2023-05-10T07:18:12.868Z,7.45
2023-05-10T07:19:16.261Z,12.20
2023-05-10T07:20:19.374Z,5.70
2023-05-10T07:21:22.149Z,6.97
2023-05-10T07:22:24.601Z,4.60
2023-05-10T07:23:29.140Z,4.97
2023-05-10T07:24:37.054Z,7.63
2023-05-10T07:25:40.593Z,7.70
2023-05-10T07:26:43.609Z,6.43
2023-05-10T07:27:46.423Z,7.15
2023-05-10T07:28:49.022Z,6.53
2023-05-10T07:29:52.204Z,6.28
2023-05-10T07:30:59.416Z,7.38
2023-05-10T07:32:03.564Z,4.78
2023-05-10T07:33:06.025Z,14.85
2023-05-10T07:34:08.780Z,12.90
2023-05-10T07:35:11.231Z,6.45
2023-05-10T07:36:13.903Z,9.20
2023-05-10T07:37:16.615Z,9.68
2023-05-10T07:38:19.210Z,8.20
2023-05-10T07:39:27.455Z,21.23
2023-05-10T07:40:30.643Z,8.23
2023-05-10T07:41:35.728Z,8.38
2023-05-10T07:42:39.367Z,8.48
2023-05-10T07:43:41.676Z,6.10
2023-05-10T07:44:44.504Z,6.35
2023-05-10T07:45:49.214Z,6.47
2023-05-10T07:46:53.448Z,4.82
2023-05-10T07:47:55.782Z,7.95
2023-05-10T07:48:58.144Z,12.90
2023-05-10T07:50:00.426Z,9.45
2023-05-10T07:51:02.967Z,8.35
2023-05-10T07:52:06.093Z,10.43
2023-05-10T07:53:11.946Z,11.35
2023-05-10T07:54:18.406Z,14.35
2023-05-10T07:55:22.417Z,11.98
2023-05-10T07:56:30.790Z,11.50
2023-05-10T07:57:34.848Z,15.80
2023-05-10T07:58:40.607Z,18.15
2023-05-10T07:59:43.310Z,11.90
2023-05-10T08:00:46.985Z,9.38
2023-05-10T08:01:53.032Z,9.10
2023-05-10T08:03:01.189Z,8.82
2023-05-10T08:04:05.758Z,8.13
2023-05-10T08:05:08.938Z,7.35
2023-05-10T08:06:16.541Z,7.05
2023-05-10T08:07:22.976Z,5.45
2023-05-10T08:08:33.405Z,7.13
2023-05-10T08:09:37.679Z,6.72
2023-05-10T08:10:39.993Z,4.80
2023-05-10T08:11:42.337Z,4.80
2023-05-10T08:12:44.588Z,6.13
2023-05-10T08:13:46.924Z,6.50
2023-05-10T08:14:49.809Z,6.35
2023-05-10T08:15:54.267Z,4.40
2023-05-10T08:16:57.413Z,5.30
2023-05-10T08:18:00.294Z,7.22
2023-05-10T08:19:13.627Z,4.22
2023-05-10T08:20:24.097Z,7.13
2023-05-10T08:21:27.393Z,6.03
2023-05-10T08:22:29.739Z,5.35
2023-05-10T08:23:32.045Z,5.22
2023-05-10T08:24:39.976Z,4.97
2023-05-10T08:25:42.291Z,6.95
2023-05-10T08:26:44.607Z,4.85
2023-05-10T08:27:46.946Z,6.35
2023-05-10T08:28:50.891Z,6.00
2023-05-10T08:29:54.677Z,5.45
2023-05-10T08:30:57.211Z,4.30
2023-05-10T08:31:59.609Z,6.03
2023-05-10T08:33:02.999Z,7.82
2023-05-10T08:34:06.653Z,5.65
2023-05-10T08:35:09.321Z,6.05
2023-05-10T08:36:11.767Z,11.55
2023-05-10T08:37:14.719Z,5.05
2023-05-10T08:38:17.246Z,6.80
2023-05-10T08:39:29.704Z,3.30
2023-05-10T08:40:33.036Z,4.03
2023-05-10T08:41:37.490Z,4.05
2023-05-10T08:42:42.684Z,8.48
2023-05-10T08:43:47.463Z,4.15
2023-05-10T08:44:50.772Z,4.95
2023-05-10T08:45:55.265Z,8.90
2023-05-10T08:46:58.981Z,4.75
2023-05-10T08:48:03.362Z,5.10
2023-05-10T08:49:11.351Z,4.30
2023-05-10T08:50:15.066Z,4.80
2023-05-10T08:51:25.060Z,5.55
2023-05-10T08:52:28.044Z,3.30
2023-05-10T08:53:33.184Z,5.18
2023-05-10T08:54:36.356Z,7.10
2023-05-10T08:55:39.970Z,6.07
2023-05-10T08:56:42.339Z,3.50
2023-05-10T08:57:44.559Z,5.35
2023-05-10T08:58:47.150Z,4.05
2023-05-10T08:59:49.729Z,4.90
2023-05-10T09:00:52.698Z,4.20
2023-05-10T09:01:57.789Z,4.07
2023-05-10T09:03:01.344Z,5.38
2023-05-10T09:04:04.247Z,4.55
2023-05-10T09:05:07.359Z,6.53
2023-05-10T09:06:10.036Z,8.63
2023-05-10T09:07:12.591Z,10.75
2023-05-10T09:08:17.445Z,12.68
2023-05-10T09:09:21.152Z,13.50
2023-05-10T09:10:27.160Z,6.57
2023-05-10T09:11:31.209Z,6.55
2023-05-10T09:12:33.972Z,12.52
2023-05-10T09:13:37.434Z,13.18
2023-05-10T09:14:40.040Z,14.13
2023-05-10T09:15:42.706Z,12.00
2023-05-10T09:16:45.157Z,6.07
2023-05-10T09:17:48.745Z,12.75
2023-05-10T09:18:51.204Z,13.73
2023-05-10T09:20:05.149Z,10.82
2023-05-10T09:21:07.486Z,16.58
2023-05-10T09:22:09.830Z,9.90
2023-05-10T09:23:12.265Z,8.25
2023-05-10T09:24:14.611Z,6.68
2023-05-10T09:25:17.976Z,6.00
2023-05-10T09:26:24.563Z,8.48
2023-05-10T09:27:30.947Z,4.85
2023-05-10T09:28:34.946Z,7.55
2023-05-10T09:29:41.647Z,4.63
2023-05-10T09:30:44.196Z,4.28
2023-05-10T09:31:59.370Z,3.97
2023-05-10T09:33:03.174Z,4.88
2023-05-10T09:34:05.567Z,5.55
2023-05-10T09:35:09.333Z,6.43
2023-05-10T09:36:12.116Z,7.80
2023-05-10T09:37:14.610Z,6.85
2023-05-10T09:38:16.994Z,6.15
2023-05-10T09:39:19.263Z,4.72
2023-05-10T09:40:26.983Z,7.60
2023-05-10T09:41:29.331Z,9.35
2023-05-10T09:42:31.652Z,4.20
2023-05-10T09:43:40.101Z,5.65
2023-05-10T09:44:44.533Z,5.20
2023-05-10T09:45:50.942Z,5.18
2023-05-10T09:46:53.970Z,4.72
2023-05-10T09:47:57.073Z,7.43
2023-05-10T09:49:00.244Z,5.75
2023-05-10T09:50:06.827Z,5.50
2023-05-10T09:51:09.994Z,5.18
2023-05-10T09:52:12.267Z,5.30
2023-05-10T09:53:20.134Z,5.93
2023-05-10T09:54:24.913Z,6.10
2023-05-10T09:55:44.068Z,4.57
2023-05-10T09:56:46.495Z,5.55
2023-05-10T09:57:49.835Z,5.90
2023-05-10T09:59:03.612Z,3.83
2023-05-10T10:00:07.134Z,5.95
2023-05-10T10:01:15.788Z,6.28
2023-05-10T10:02:18.331Z,4.20
2023-05-10T10:03:22.202Z,6.10
2023-05-10T10:04:28.763Z,7.18
2023-05-10T10:05:36.136Z,4.85
2023-05-10T10:06:41.456Z,4.57
2023-05-10T10:07:44.033Z,4.25
2023-05-10T10:08:46.524Z,5.72
2023-05-10T10:09:48.909Z,8.25
2023-05-10T10:10:53.833Z,16.83
2023-05-10T10:11:56.819Z,5.32
2023-05-10T10:12:59.514Z,5.30
2023-05-10T10:14:02.116Z,4.32
2023-05-10T10:15:05.625Z,5.55
2023-05-10T10:16:09.850Z,4.10
2023-05-10T10:17:13.282Z,5.43
2023-05-10T10:18:18.786Z,4.68
2023-05-10T10:19:22.670Z,5.05
2023-05-10T10:20:26.246Z,5.13
2023-05-10T10:21:29.158Z,6.72
2023-05-10T10:22:31.452Z,8.60
2023-05-10T10:23:33.778Z,4.28
2023-05-10T10:24:36.144Z,4.10
2023-05-10T10:25:39.261Z,5.20
2023-05-10T10:26:43.858Z,4.22
2023-05-10T10:27:55.333Z,6.25
2023-05-10T10:29:12.107Z,9.50
2023-05-10T10:30:33.206Z,4.90
2023-05-10T10:32:01.604Z,8.98
2023-05-10T10:33:29.951Z,9.57
2023-05-10T10:34:32.777Z,7.82
2023-05-10T10:35:35.636Z,6.63
2023-05-10T10:36:48.159Z,5.75
2023-05-10T10:37:52.144Z,7.05
2023-05-10T10:39:02.406Z,4.20
2023-05-10T10:40:27.774Z,3.42
2023-05-10T10:41:37.991Z,4.13
2023-05-10T10:42:47.395Z,4.95
2023-05-10T10:43:49.813Z,4.00
2023-05-10T10:45:15.164Z,4.65
2023-05-10T10:46:18.984Z,3.00
2023-05-10T10:47:26.126Z,3.17
2023-05-10T10:48:28.739Z,6.78
2023-05-10T10:49:35.054Z,5.25
2023-05-10T10:50:46.650Z,3.38
2023-05-10T10:52:34.671Z,3.63
2023-05-10T10:55:23.787Z,3.10
2023-05-10T10:56:26.233Z,4.60
2023-05-10T10:57:31.406Z,3.67
2023-05-10T10:58:35.145Z,3.30
2023-05-10T11:00:42.096Z,4.45
2023-05-10T11:01:45.647Z,7.82
2023-05-10T11:02:53.149Z,2.97
2023-05-10T11:04:04.484Z,3.90
2023-05-10T11:05:34.690Z,2.67
2023-05-10T11:06:37.416Z,3.47
2023-05-10T11:07:56.140Z,4.13
2023-05-10T11:08:58.905Z,2.80
2023-05-10T11:10:06.410Z,2.80
2023-05-10T11:11:08.904Z,3.17
2023-05-10T11:12:11.268Z,3.28
2023-05-10T11:13:13.711Z,4.07
2023-05-10T11:14:16.102Z,4.68
2023-05-10T11:15:18.536Z,2.78
2023-05-10T11:16:24.742Z,2.97
2023-05-10T11:17:31.642Z,4.65
2023-05-10T11:18:34.043Z,3.05
2023-05-10T11:19:36.536Z,3.47
2023-05-10T11:20:41.684Z,3.70
2023-05-10T11:22:06.494Z,3.95
2023-05-10T11:23:19.222Z,4.05
2023-05-10T11:24:29.170Z,4.32
2023-05-10T11:26:35.657Z,2.72
2023-05-10T11:27:39.140Z,4.60
2023-05-10T11:28:49.452Z,4.90
2023-05-10T11:29:54.420Z,2.80
2023-05-10T11:30:58.064Z,2.85
2023-05-10T11:32:01.000Z,4.75
2023-05-10T11:33:03.465Z,2.70
2023-05-10T11:34:06.214Z,3.92
2023-05-10T11:35:09.889Z,3.47
2023-05-10T11:36:16.114Z,3.40
2023-05-10T11:37:19.588Z,2.42
2023-05-10T11:38:21.881Z,2.30
2023-05-10T11:39:32.802Z,2.63
2023-05-10T11:40:36.370Z,2.97
2023-05-10T11:41:42.905Z,4.35
2023-05-10T11:42:46.188Z,3.35
2023-05-10T11:43:50.377Z,2.60
2023-05-10T11:44:52.678Z,4.15
2023-05-10T11:46:01.280Z,3.38
2023-05-10T11:47:04.493Z,2.50
2023-05-10T11:48:07.019Z,3.00
2023-05-10T11:49:09.574Z,3.45
2023-05-10T11:50:36.280Z,2.83
2023-05-10T11:51:38.476Z,2.75
2023-05-10T11:52:40.792Z,2.78
2023-05-10T11:53:43.191Z,2.35
2023-05-10T11:54:55.630Z,2.42
2023-05-10T11:56:04.579Z,4.10
2023-05-10T11:57:06.869Z,3.28
2023-05-10T11:58:09.834Z,2.67
2023-05-10T11:59:12.375Z,4.82
2023-05-10T12:00:15.656Z,3.05
2023-05-10T12:01:18.488Z,6.57
2023-05-10T12:02:21.046Z,2.78
2023-05-10T12:03:24.225Z,2.30
2023-05-10T12:04:27.591Z,3.97
2023-05-10T12:05:31.149Z,2.53
2023-05-10T12:06:39.883Z,3.10
2023-05-10T12:07:42.674Z,4.20
2023-05-10T12:08:49.426Z,2.88
2023-05-10T12:10:16.329Z,4.50
2023-05-10T12:11:19.147Z,2.33
2023-05-10T12:12:21.782Z,2.85
2023-05-10T12:13:24.204Z,9.32
2023-05-10T12:14:26.686Z,8.88
2023-05-10T12:15:29.228Z,4.25
2023-05-10T12:16:31.896Z,2.55
2023-05-10T12:17:34.388Z,4.07
2023-05-10T12:18:41.415Z,5.22
2023-05-10T12:19:46.269Z,2.30
2023-05-10T12:20:48.578Z,4.28
2023-05-10T12:21:50.928Z,3.58
2023-05-10T12:23:00.342Z,1.95
2023-05-10T12:24:04.622Z,5.57
2023-05-10T12:26:12.570Z,3.97
2023-05-10T12:28:49.988Z,3.00
2023-05-10T12:29:52.215Z,5.78
2023-05-10T12:30:55.148Z,3.90
2023-05-10T12:31:59.510Z,2.92
2023-05-10T12:33:13.390Z,2.78
2023-05-10T12:34:24.941Z,2.50
2023-05-10T12:35:27.422Z,3.17
2023-05-10T12:36:29.565Z,3.95
2023-05-10T12:37:31.807Z,4.90
2023-05-10T12:38:39.407Z,4.20
2023-05-10T12:39:47.166Z,3.03
2023-05-10T12:40:49.508Z,2.67
2023-05-10T12:41:53.112Z,2.40
2023-05-10T12:42:55.515Z,2.88
2023-05-10T12:43:57.757Z,2.55
2023-05-10T12:45:00.186Z,6.47
2023-05-10T12:46:09.716Z,6.47
2023-05-10T12:47:12.144Z,3.25
2023-05-10T12:48:15.021Z,5.93
2023-05-10T12:49:18.010Z,6.60
2023-05-10T12:50:20.704Z,8.18
2023-05-10T12:51:23.857Z,4.70
2023-05-10T12:52:27.204Z,3.92
2023-05-10T12:53:29.474Z,2.10
2023-05-10T12:54:31.783Z,2.30
2023-05-10T12:55:36.056Z,2.88
2023-05-10T12:56:38.358Z,3.28
2023-05-10T12:57:40.561Z,3.15
2023-05-10T12:58:42.927Z,2.40
2023-05-10T12:59:45.269Z,2.40
2023-05-10T13:00:47.678Z,4.05
2023-05-10T13:01:49.970Z,3.22
2023-05-10T13:02:52.234Z,4.65
2023-05-10T13:03:54.741Z,4.75
2023-05-10T13:04:57.629Z,3.13
2023-05-10T13:05:59.939Z,3.35
2023-05-10T13:07:02.940Z,6.60
2023-05-10T13:08:05.551Z,4.65
2023-05-10T13:09:08.097Z,4.15
2023-05-10T13:10:10.786Z,4.25
2023-05-10T13:11:17.611Z,8.15
2023-05-10T13:12:19.884Z,3.58
2023-05-10T13:13:22.146Z,2.42
2023-05-10T13:14:24.339Z,3.28
2023-05-10T13:15:27.326Z,8.27
2023-05-10T13:16:29.633Z,2.83
2023-05-10T13:17:34.047Z,3.10
2023-05-10T13:18:36.709Z,3.17
2023-05-10T13:19:39.068Z,2.45
2023-05-10T13:20:45.466Z,2.55
2023-05-10T13:21:47.907Z,2.30
2023-05-10T13:22:50.624Z,3.13
2023-05-10T13:23:54.518Z,6.15
2023-05-10T13:24:56.824Z,2.33
2023-05-10T13:25:59.152Z,2.28
2023-05-10T13:27:01.388Z,2.85
2023-05-10T13:28:03.701Z,3.13
2023-05-10T13:29:06.192Z,4.30
2023-05-10T13:30:12.377Z,2.17
2023-05-10T13:31:15.212Z,2.47
2023-05-10T13:32:17.527Z,2.42
2023-05-10T13:33:19.749Z,2.40
2023-05-10T13:34:22.004Z,3.90
2023-05-10T13:35:24.574Z,6.20
2023-05-10T13:36:27.709Z,1.95
2023-05-10T13:37:31.251Z,2.30
2023-05-10T13:38:33.506Z,2.40
2023-05-10T13:39:35.701Z,2.45
2023-05-10T13:40:38.051Z,3.78
2023-05-10T13:41:40.689Z,2.63
2023-05-10T13:42:43.746Z,4.22
2023-05-10T13:43:46.053Z,3.92
2023-05-10T13:44:48.275Z,2.65
2023-05-10T13:45:50.535Z,4.75
2023-05-10T13:46:52.862Z,2.40
2023-05-10T13:47:55.265Z,2.67
2023-05-10T13:48:58.160Z,2.30
2023-05-10T13:50:00.329Z,4.05
2023-05-10T13:51:02.589Z,3.80
2023-05-10T13:52:07.959Z,2.50
2023-05-10T13:53:10.228Z,2.20
2023-05-10T13:54:13.633Z,2.88
2023-05-10T13:55:19.666Z,5.30
2023-05-10T13:56:28.379Z,3.55
2023-05-10T13:57:31.430Z,5.28
2023-05-10T13:58:40.857Z,3.55
2023-05-10T13:59:43.147Z,6.75
2023-05-10T14:00:48.164Z,4.78
2023-05-10T14:01:54.039Z,2.00
2023-05-10T14:02:56.607Z,3.83
2023-05-10T14:03:58.915Z,3.60
2023-05-10T14:05:01.329Z,2.78
2023-05-10T14:06:11.403Z,3.58
2023-05-10T14:07:13.833Z,4.57
2023-05-10T14:08:16.070Z,2.63
2023-05-10T14:09:18.476Z,3.67
2023-05-10T14:10:21.111Z,2.60
2023-05-10T14:11:24.863Z,2.83
2023-05-10T14:12:27.264Z,4.70
2023-05-10T14:13:29.766Z,3.70
2023-05-10T14:14:32.469Z,2.40
2023-05-10T14:15:36.526Z,4.20
2023-05-10T14:16:38.829Z,3.63
2023-05-10T14:17:41.319Z,2.25
2023-05-10T14:18:43.680Z,4.25
2023-05-10T14:19:45.868Z,2.22
2023-05-10T14:20:48.279Z,6.60
2023-05-10T14:21:56.447Z,3.75
2023-05-10T14:22:58.793Z,2.80
2023-05-10T14:24:01.291Z,2.38
2023-05-10T14:25:03.641Z,2.72
2023-05-10T14:26:06.258Z,3.28
2023-05-10T14:27:08.555Z,1.77
2023-05-10T14:28:23.950Z,1.98
2023-05-10T14:29:26.231Z,2.03
2023-05-10T14:30:31.027Z,2.20
2023-05-10T14:31:39.214Z,2.63
2023-05-10T14:32:41.629Z,3.40